Hamlet, Illinois
Current Conditions -  °F | °C
As of 12:52 AM on Thursday 23 Oct 2014 (Local Time) from KMLI Reporting Station
Clear Clear  
Wind Chill: 40°   Ceiling: Unl
Heat Index: 44°   Visibility: 10mi
Dew Point: 35°   Wind: 7mph
Humidity: 71%   Direction: 150°SSE
Pressure: 30.19"   Gusts: NA
Location:  41.1928°N, 90.7165°W
Report Text: KMLI 230552Z AUTO 15006KT 10SM CLR 07/02 A3019 RMK AO2 SLP225 T00670017 10089 20039 401611006 57013
Loading
Personal Weather Stations






























Interactive Weather Map
Tropical Storm Tracking
New forecast layout! Learn more

10-Day Weather Forecast

Advertisements
Track Severe Weather on mobile